createdAt,value
2023-02-28T00:03:51.795Z,99330.91
2023-02-28T00:09:13.553Z,99328.34
2023-02-28T00:14:35.316Z,99330.84
2023-02-28T00:19:57.917Z,99322.38
2023-02-28T00:25:25.001Z,99327.38
2023-02-28T00:30:46.824Z,99333.59
2023-02-28T00:36:11.129Z,99325.03
2023-02-28T00:41:32.856Z,99326.66
2023-02-28T00:46:55.124Z,99334.50
2023-02-28T00:52:16.883Z,99338.81
2023-02-28T00:57:38.622Z,99325.75
2023-02-28T01:03:00.370Z,99328.47
2023-02-28T01:08:22.815Z,99331.09
2023-02-28T01:13:46.816Z,99325.19
2023-02-28T01:19:09.087Z,99324.22
2023-02-28T01:24:31.653Z,99323.41
2023-02-28T01:29:54.183Z,99326.94
2023-02-28T01:35:16.045Z,99316.72
2023-02-28T01:40:37.800Z,99325.13
2023-02-28T01:46:00.225Z,99327.84
2023-02-28T01:51:35.626Z,99319.28
2023-02-28T01:57:01.868Z,99309.03
2023-02-28T02:02:25.094Z,99306.28
2023-02-28T02:07:51.806Z,99305.50
2023-02-28T02:13:35.097Z,99303.75
2023-02-28T02:19:19.691Z,99297.78
2023-02-28T02:24:50.588Z,99290.94
2023-02-28T02:30:20.694Z,99284.00
2023-02-28T02:35:58.861Z,99285.59
2023-02-28T02:41:26.682Z,99280.69
2023-02-28T02:46:51.323Z,99278.81
2023-02-28T02:52:18.439Z,99282.34
2023-02-28T02:57:52.968Z,99283.25
2023-02-28T03:03:18.517Z,99279.84
2023-02-28T03:08:40.285Z,99273.63
2023-02-28T03:14:16.463Z,99284.09
2023-02-28T03:19:52.485Z,99287.63
2023-02-28T03:25:21.128Z,99287.47
2023-02-28T03:31:21.366Z,99282.47
2023-02-28T03:36:51.320Z,99277.16
2023-02-28T03:42:19.355Z,99271.09
2023-02-28T03:47:53.360Z,99265.97
2023-02-28T03:53:34.197Z,99277.13
2023-02-28T03:59:19.612Z,99272.72
2023-02-28T04:04:46.087Z,99275.50
2023-02-28T04:10:08.239Z,99281.34
2023-02-28T04:15:30.009Z,99290.72
2023-02-28T04:20:51.744Z,99284.09
2023-02-28T04:26:13.457Z,99278.84
2023-02-28T04:31:35.425Z,99284.06
2023-02-28T04:37:11.907Z,99277.16
2023-02-28T04:42:36.371Z,99278.00
2023-02-28T04:47:58.131Z,99281.31
2023-02-28T04:53:20.732Z,99274.25
2023-02-28T04:58:43.651Z,99275.13
2023-02-28T05:04:05.904Z,99276.16
2023-02-28T05:09:28.114Z,99281.31
2023-02-28T05:14:49.828Z,99285.59
2023-02-28T05:20:19.528Z,99278.47
2023-02-28T05:25:41.579Z,99282.97
2023-02-28T05:31:03.341Z,99285.59
2023-02-28T05:36:25.385Z,99281.13
2023-02-28T05:41:47.083Z,99286.22
2023-02-28T05:47:08.842Z,99287.88
2023-02-28T05:52:33.531Z,99293.97
2023-02-28T05:57:55.489Z,99296.50
2023-02-28T06:03:17.322Z,99299.16
2023-02-28T06:08:39.159Z,99293.78
2023-02-28T06:14:01.947Z,99293.88
2023-02-28T06:19:26.491Z,99306.16
2023-02-28T06:24:48.583Z,99307.81
2023-02-28T06:30:12.180Z,99309.41
2023-02-28T06:35:33.917Z,99321.44
2023-02-28T06:40:57.275Z,99324.88
2023-02-28T06:46:19.367Z,99325.66
2023-02-28T06:51:46.069Z,99322.09
2023-02-28T06:57:08.389Z,99332.53
2023-02-28T07:02:30.156Z,99328.19
2023-02-28T07:07:53.584Z,99333.16
2023-02-28T07:13:15.297Z,99339.34
2023-02-28T07:18:38.454Z,99336.75
2023-02-28T07:24:00.172Z,99342.00
2023-02-28T07:29:22.105Z,99347.91
2023-02-28T07:34:43.824Z,99350.56
2023-02-28T07:40:12.392Z,99342.72
2023-02-28T07:45:35.461Z,99349.38
2023-02-28T07:50:58.531Z,99354.59
2023-02-28T07:56:20.280Z,99354.59
2023-02-28T08:01:42.025Z,99360.59
2023-02-28T08:07:03.767Z,99354.41
2023-02-28T08:12:25.511Z,99358.63
2023-02-28T08:17:47.222Z,99366.34
2023-02-28T08:23:08.938Z,99364.75
2023-02-28T08:28:31.074Z,99355.91
2023-02-28T08:33:54.074Z,99364.53
2023-02-28T08:39:15.827Z,99361.97
2023-02-28T08:44:37.552Z,99368.66
2023-02-28T08:49:59.308Z,99369.53
2023-02-28T08:55:21.014Z,99375.75
2023-02-28T09:00:42.715Z,99381.66
2023-02-28T09:06:05.696Z,99376.56
2023-02-28T09:11:27.879Z,99378.13
2023-02-28T09:16:49.915Z,99382.47
2023-02-28T09:22:12.424Z,99378.19
2023-02-28T09:27:34.129Z,99391.84
2023-02-28T09:32:55.902Z,99383.28
2023-02-28T09:38:18.611Z,99388.91
2023-02-28T09:43:44.996Z,99392.44
2023-02-28T09:49:13.297Z,99403.66
2023-02-28T09:54:35.198Z,99395.97
2023-02-28T10:00:10.661Z,99399.22
2023-02-28T10:05:44.437Z,99391.50
2023-02-28T10:11:08.861Z,99392.09
2023-02-28T10:16:59.544Z,99401.41
2023-02-28T10:22:30.386Z,99412.88
2023-02-28T10:28:02.408Z,99417.06
2023-02-28T10:33:35.166Z,99416.97
2023-02-28T10:38:56.954Z,99411.88
2023-02-28T10:44:22.303Z,99414.03
2023-02-28T10:49:53.355Z,99408.72
2023-02-28T10:55:26.046Z,99404.53
2023-02-28T11:00:48.187Z,99399.84
2023-02-28T11:06:17.856Z,99399.78
2023-02-28T11:11:46.362Z,99395.88
2023-02-28T11:17:36.377Z,99399.94
2023-02-28T11:23:01.653Z,99377.00
2023-02-28T11:28:34.450Z,99369.50
2023-02-28T11:33:56.871Z,99372.34
2023-02-28T11:39:20.083Z,99368.38
2023-02-28T11:44:52.387Z,99364.78
2023-02-28T11:50:51.109Z,99363.09
2023-02-28T11:56:25.221Z,99360.44
2023-02-28T12:01:56.064Z,99358.94
2023-02-28T12:07:59.417Z,99353.47
2023-02-28T12:13:37.651Z,99355.66
2023-02-28T12:19:19.705Z,99348.44
2023-02-28T12:25:14.239Z,99346.31
2023-02-28T12:30:40.993Z,99331.13
2023-02-28T12:36:11.101Z,99333.22
2023-02-28T12:41:41.998Z,99320.03
2023-02-28T12:47:06.704Z,99316.38
2023-02-28T12:53:06.347Z,99304.81
2023-02-28T12:58:44.278Z,99309.25
2023-02-28T13:04:32.410Z,99304.75
2023-02-28T13:10:00.258Z,99307.03
2023-02-28T13:15:29.648Z,99300.69
2023-02-28T13:20:52.248Z,99283.25
2023-02-28T13:26:14.064Z,99282.00
2023-02-28T13:32:07.855Z,99293.09
2023-02-28T13:37:30.566Z,99292.47
2023-02-28T13:42:53.524Z,99286.09
2023-02-28T13:48:29.823Z,99294.00
2023-02-28T13:54:11.066Z,99291.81
2023-02-28T13:59:46.942Z,99288.88
2023-02-28T14:05:18.048Z,99290.63
2023-02-28T14:10:46.569Z,99289.31
2023-02-28T14:16:09.944Z,99278.84
2023-02-28T14:21:38.791Z,99276.19
2023-02-28T14:27:18.711Z,99282.31
2023-02-28T14:32:59.545Z,99281.06
2023-02-28T14:38:27.027Z,99278.28
2023-02-28T14:43:54.889Z,99278.97
2023-02-28T14:49:29.042Z,99283.94
2023-02-28T14:54:56.678Z,99278.97
2023-02-28T15:00:33.523Z,99283.56
2023-02-28T15:05:58.469Z,99295.66
2023-02-28T15:11:23.165Z,99290.88
2023-02-28T15:16:47.783Z,99289.38
2023-02-28T15:22:17.849Z,99300.78
2023-02-28T15:27:47.052Z,99289.78
2023-02-28T15:33:12.381Z,99293.31
2023-02-28T15:38:37.333Z,99293.97
2023-02-28T15:44:35.805Z,99301.16
2023-02-28T15:50:01.796Z,99290.84
2023-02-28T15:55:28.414Z,99295.09
2023-02-28T16:01:08.697Z,99306.38
2023-02-28T16:06:38.210Z,99305.09
2023-02-28T16:12:06.317Z,99307.25
2023-02-28T16:17:30.834Z,99312.38
2023-02-28T16:22:52.966Z,99312.69
2023-02-28T16:28:26.367Z,99313.50
2023-02-28T16:33:48.661Z,99317.31
2023-02-28T16:39:10.385Z,99327.38
2023-02-28T16:44:34.820Z,99333.16
2023-02-28T16:49:56.997Z,99339.16
2023-02-28T16:55:19.850Z,99342.69
2023-02-28T17:00:42.514Z,99350.69
2023-02-28T17:06:05.766Z,99348.13
2023-02-28T17:11:28.086Z,99359.75
2023-02-28T17:16:50.386Z,99361.63
2023-02-28T17:22:12.386Z,99366.00
2023-02-28T17:27:34.116Z,99378.38
2023-02-28T17:32:57.065Z,99374.97
2023-02-28T17:38:20.149Z,99385.03
2023-02-28T17:43:41.951Z,99398.09
2023-02-28T17:49:04.240Z,99399.78
2023-02-28T17:54:26.050Z,99405.44
2023-02-28T17:59:47.745Z,99411.88
2023-02-28T18:05:10.708Z,99408.81
2023-02-28T18:10:34.225Z,99412.28
2023-02-28T18:15:56.027Z,99407.31
2023-02-28T18:21:17.844Z,99411.75
2023-02-28T18:26:40.622Z,99399.78
2023-02-28T18:32:02.420Z,99406.81
2023-02-28T18:37:24.297Z,99410.31
2023-02-28T18:42:45.991Z,99414.06
2023-02-28T18:48:08.153Z,99421.13
2023-02-28T18:53:29.904Z,99416.09
2023-02-28T18:58:52.553Z,99412.13
2023-02-28T19:04:15.020Z,99404.22
2023-02-28T19:09:36.997Z,99401.09
2023-02-28T19:14:58.774Z,99416.06
2023-02-28T19:20:20.602Z,99419.69
2023-02-28T19:25:42.820Z,99417.75
2023-02-28T19:31:11.534Z,99418.78
2023-02-28T19:36:34.250Z,99424.22
2023-02-28T19:41:56.246Z,99422.53
2023-02-28T19:47:18.017Z,99422.47
2023-02-28T19:58:06.456Z,99426.72
2023-02-28T20:03:28.308Z,99429.63
2023-02-28T20:08:50.681Z,99424.53
2023-02-28T20:14:17.755Z,99416.84
2023-02-28T20:19:39.579Z,99412.47
2023-02-28T20:25:01.476Z,99416.97
2023-02-28T20:30:24.367Z,99415.09
2023-02-28T20:35:46.376Z,99414.34
2023-02-28T20:41:08.993Z,99418.41
2023-02-28T20:46:31.719Z,99409.94
2023-02-28T20:51:53.765Z,99411.81
2023-02-28T20:57:15.533Z,99409.03
2023-02-28T21:02:37.376Z,99412.75
2023-02-28T21:07:59.187Z,99413.56
2023-02-28T21:13:21.131Z,99432.56
2023-02-28T21:18:43.273Z,99430.06
2023-02-28T21:24:06.141Z,99422.34
2023-02-28T21:29:27.898Z,99424.00
2023-02-28T21:34:50.013Z,99407.66
2023-02-28T21:40:12.516Z,99411.03
2023-02-28T21:45:34.618Z,99413.00
2023-02-28T21:51:01.344Z,99408.03
2023-02-28T21:56:25.113Z,99411.50
2023-02-28T22:01:50.878Z,99414.94
2023-02-28T22:07:12.716Z,99409.72
2023-02-28T22:12:34.431Z,99404.72
2023-02-28T22:17:56.138Z,99402.09
2023-02-28T22:23:17.857Z,99399.53
2023-02-28T22:28:39.616Z,99405.56
2023-02-28T22:34:08.681Z,99407.28
2023-02-28T22:39:30.530Z,99408.19
2023-02-28T22:44:52.254Z,99406.41
2023-02-28T22:50:14.132Z,99415.94
2023-02-28T22:55:35.863Z,99415.09
2023-02-28T23:01:08.500Z,99402.88
2023-02-28T23:06:42.087Z,99408.13
2023-02-28T23:12:03.894Z,99407.19
2023-02-28T23:17:25.789Z,99403.06
2023-02-28T23:22:50.425Z,99399.59
2023-02-28T23:28:12.156Z,99403.03
2023-02-28T23:33:34.016Z,99410.13
2023-02-28T23:38:56.203Z,99407.66
2023-02-28T23:44:18.116Z,99403.53
2023-02-28T23:49:40.265Z,99413.91
2023-02-28T23:55:02.029Z,99403.84
